logo
Search for airport 
image banner adimage banner adimage banner ad
image banner ad

FAMD - Malamala

Located in Hillcrest Natal, South Africa

ICAO - FAMD, IATA - AAM

Data provided by Airmate  

General information

Coordinates: S24°49'3" E31°32'41"
Elevation is 1100 feet MSL.
 
Rated:
View ratings:
[VIEW]
View others Airports in Limpopo

Operational data

Special qualification required
Current time UTC:
Current local time:
METAR: FAKN 140500Z AUTO 25002KT //// // ////// 15/14 Q1025
TAF: TAF FAKN 140300Z 1404/1415 VRB03KT 9999 BKN020 TX25/1412Z TN14/1404Z PROB30 TEMPO 1404/1406 0800 FG BKN009 PROB30 TEMPO 1404/1408 5000 BR BKN015 BECMG 1408/1410 07008KT 9999 SCT025 PROB30 TEMPO 1412/1415 FEW035TCU
View NOTAMs / SUP AIP / TFR affecting this airport [VIEW]
Communications frequencies: [VIEW]

Runways:

RWY identifierQFULength (ft)Width (ft)SurfaceLDA (ft)
16141°427575ASP
34321°427575ASP

Airport contact information

Address: Hillcrest Natal South Africa

Satellite view of FAMD